createdAt,value
2022-10-07T00:01:03.273Z,63.25
2022-10-07T00:02:35.106Z,64.07
2022-10-07T00:04:07.029Z,63.76
2022-10-07T00:05:38.987Z,64.02
2022-10-07T00:07:10.649Z,63.89
2022-10-07T00:08:43.719Z,64.02
2022-10-07T00:10:16.843Z,64.53
2022-10-07T00:11:48.430Z,64.34
2022-10-07T00:13:20.174Z,64.39
2022-10-07T00:14:52.885Z,64.27
2022-10-07T00:16:26.329Z,63.82
2022-10-07T00:17:58.190Z,64.29
2022-10-07T00:19:29.755Z,64.59
2022-10-07T00:21:05.598Z,64.71
2022-10-07T00:22:37.263Z,64.50
2022-10-07T00:24:10.366Z,64.87
2022-10-07T00:25:46.728Z,64.91
2022-10-07T00:27:19.098Z,64.70
2022-10-07T00:29:02.897Z,64.66
2022-10-07T00:30:46.758Z,63.97
2022-10-07T00:32:26.594Z,64.14
2022-10-07T00:33:59.049Z,64.69
2022-10-07T00:35:30.729Z,64.38
2022-10-07T00:37:02.621Z,65.10
2022-10-07T00:38:34.238Z,64.90
2022-10-07T00:40:06.130Z,64.46
2022-10-07T00:41:40.752Z,64.24
2022-10-07T00:43:19.189Z,64.19
2022-10-07T00:44:54.803Z,64.10
2022-10-07T00:46:29.570Z,64.25
2022-10-07T00:48:04.130Z,64.46
2022-10-07T00:49:40.813Z,64.64
2022-10-07T00:51:16.399Z,65.06
2022-10-07T00:52:51.528Z,64.57
2022-10-07T00:54:23.227Z,65.24
2022-10-07T00:55:57.365Z,64.78
2022-10-07T00:57:34.236Z,65.40
2022-10-07T00:59:05.959Z,64.70
2022-10-07T01:00:39.171Z,64.81
2022-10-07T01:02:10.933Z,64.65
2022-10-07T01:03:42.973Z,65.38
2022-10-07T01:05:15.403Z,65.31
2022-10-07T01:06:47.798Z,65.05
2022-10-07T01:08:20.489Z,64.98
2022-10-07T01:09:53.478Z,65.18
2022-10-07T01:11:33.877Z,65.16
2022-10-07T01:13:10.497Z,65.46
2022-10-07T01:14:49.438Z,65.27
2022-10-07T01:16:25.104Z,65.95
2022-10-07T01:18:03.426Z,65.73
2022-10-07T01:19:42.484Z,66.09
2022-10-07T01:21:19.997Z,66.13
2022-10-07T01:22:57.247Z,65.43
2022-10-07T01:24:34.051Z,65.88
2022-10-07T01:26:17.081Z,66.28
2022-10-07T01:27:53.227Z,66.13
2022-10-07T01:29:28.967Z,66.22
2022-10-07T01:31:04.957Z,66.43
2022-10-07T01:32:39.407Z,66.39
2022-10-07T01:34:13.961Z,66.44
2022-10-07T01:35:48.591Z,67.16
2022-10-07T01:37:22.110Z,67.33
2022-10-07T01:38:56.803Z,67.15
2022-10-07T01:40:35.251Z,66.79
2022-10-07T01:42:07.413Z,67.07
2022-10-07T01:43:40.537Z,66.65
2022-10-07T01:45:14.257Z,67.20
2022-10-07T01:46:47.802Z,67.29
2022-10-07T01:48:19.679Z,67.03
2022-10-07T01:49:51.290Z,67.09
2022-10-07T01:51:25.199Z,67.53
2022-10-07T01:53:18.463Z,67.05
2022-10-07T01:54:57.751Z,67.06
2022-10-07T01:56:42.121Z,67.75
2022-10-07T01:58:22.158Z,67.72
2022-10-07T02:00:02.269Z,67.49
2022-10-07T02:01:50.233Z,67.33
2022-10-07T02:03:32.937Z,67.47
2022-10-07T02:05:11.277Z,67.56
2022-10-07T02:06:49.131Z,67.32
2022-10-07T02:08:29.970Z,67.89
2022-10-07T02:10:17.450Z,67.76
2022-10-07T02:11:52.317Z,67.93
2022-10-07T02:13:27.325Z,68.04
2022-10-07T02:15:04.195Z,67.41
2022-10-07T02:16:40.138Z,67.63
2022-10-07T02:18:15.373Z,67.72
2022-10-07T02:19:48.865Z,68.05
2022-10-07T02:21:25.594Z,67.94
2022-10-07T02:22:58.519Z,67.70
2022-10-07T02:24:32.654Z,68.14
2022-10-07T02:26:07.648Z,68.05
2022-10-07T02:27:40.557Z,67.75
2022-10-07T02:29:14.102Z,67.57
2022-10-07T02:30:55.882Z,67.70
2022-10-07T02:32:29.878Z,67.80
2022-10-07T02:34:04.510Z,67.48
2022-10-07T02:35:41.471Z,67.93
2022-10-07T02:37:14.924Z,67.96
2022-10-07T02:38:46.773Z,67.60
2022-10-07T02:40:18.604Z,67.59
2022-10-07T02:41:51.517Z,67.99
2022-10-07T02:43:30.080Z,67.14
2022-10-07T02:45:11.468Z,68.00
2022-10-07T02:46:49.331Z,67.31
2022-10-07T02:48:23.810Z,67.14
2022-10-07T02:50:04.939Z,68.07
2022-10-07T02:51:39.761Z,67.96
2022-10-07T02:53:36.266Z,67.58
2022-10-07T02:55:11.358Z,67.80
2022-10-07T02:56:47.780Z,67.83
2022-10-07T02:58:21.335Z,67.92
2022-10-07T03:00:00.874Z,68.29
2022-10-07T03:01:39.460Z,67.92
2022-10-07T03:05:11.575Z,69.03
2022-10-07T03:06:52.280Z,68.72
2022-10-07T03:08:27.570Z,69.46
2022-10-07T03:10:02.061Z,69.04
2022-10-07T03:11:34.347Z,69.03
2022-10-07T03:13:07.574Z,69.62
2022-10-07T03:14:42.671Z,69.44
2022-10-07T03:16:15.411Z,69.72
2022-10-07T03:17:48.751Z,69.26
2022-10-07T03:19:22.057Z,69.63
2022-10-07T03:20:57.901Z,69.57
2022-10-07T03:22:29.613Z,70.11
2022-10-07T03:24:11.267Z,69.99
2022-10-07T03:25:55.790Z,70.18
2022-10-07T03:27:37.712Z,70.23
2022-10-07T03:29:13.910Z,70.52
2022-10-07T03:30:46.225Z,70.66
2022-10-07T03:32:25.486Z,70.62
2022-10-07T03:33:58.458Z,70.79
2022-10-07T03:35:31.946Z,70.92
2022-10-07T03:37:04.627Z,70.86
2022-10-07T03:38:39.874Z,71.50
2022-10-07T03:40:15.025Z,71.58
2022-10-07T03:41:48.926Z,71.90
2022-10-07T03:43:20.581Z,71.79
2022-10-07T03:44:52.854Z,71.79
2022-10-07T03:46:27.130Z,71.65
2022-10-07T03:47:59.506Z,72.08
2022-10-07T03:49:31.107Z,71.65
2022-10-07T03:51:04.896Z,71.87
2022-10-07T03:52:38.990Z,71.92
2022-10-07T03:54:11.392Z,71.76
2022-10-07T03:55:44.453Z,71.87
2022-10-07T03:57:34.783Z,72.05
2022-10-07T03:59:06.494Z,71.83
2022-10-07T04:00:39.016Z,71.85
2022-10-07T04:02:10.889Z,72.27
2022-10-07T04:03:42.712Z,71.79
2022-10-07T04:05:17.200Z,72.15
2022-10-07T04:06:50.738Z,71.84
2022-10-07T04:08:22.456Z,71.85
2022-10-07T04:09:54.204Z,72.31
2022-10-07T04:11:26.097Z,72.24
2022-10-07T04:13:00.705Z,72.24
2022-10-07T04:14:33.342Z,72.16
2022-10-07T04:16:08.777Z,72.09
2022-10-07T04:17:41.004Z,72.06
2022-10-07T04:19:13.721Z,72.06
2022-10-07T04:20:46.672Z,72.37
2022-10-07T04:22:19.906Z,72.17
2022-10-07T04:23:51.517Z,71.99
2022-10-07T04:25:35.494Z,72.29
2022-10-07T04:27:28.270Z,72.21
2022-10-07T04:29:06.828Z,72.29
2022-10-07T04:30:39.711Z,72.40
2022-10-07T04:32:11.360Z,72.09
2022-10-07T04:33:44.263Z,72.00
2022-10-07T04:35:18.608Z,72.35
2022-10-07T04:36:50.266Z,72.24
2022-10-07T04:38:27.643Z,72.37
2022-10-07T04:40:01.540Z,72.59
2022-10-07T04:41:37.493Z,72.46
2022-10-07T04:43:20.204Z,72.79
2022-10-07T04:44:56.299Z,72.65
2022-10-07T04:46:28.548Z,72.62
2022-10-07T04:48:09.236Z,72.37
2022-10-07T04:49:42.259Z,72.52
2022-10-07T04:51:16.112Z,72.76
2022-10-07T04:52:50.717Z,72.85
2022-10-07T04:54:26.160Z,72.71
2022-10-07T04:56:00.706Z,72.94
2022-10-07T04:57:32.688Z,73.37
2022-10-07T04:59:05.500Z,72.75
2022-10-07T05:00:49.986Z,72.93
2022-10-07T05:02:23.432Z,72.99
2022-10-07T05:03:55.270Z,73.30
2022-10-07T05:05:28.173Z,73.58
2022-10-07T05:07:00.250Z,73.21
2022-10-07T05:08:34.394Z,72.94
2022-10-07T05:10:09.453Z,73.25
2022-10-07T05:11:41.957Z,73.18
2022-10-07T05:13:18.841Z,73.03
2022-10-07T05:14:51.584Z,73.25
2022-10-07T05:16:23.305Z,73.45
2022-10-07T05:17:56.243Z,73.26
2022-10-07T05:19:30.728Z,73.25
2022-10-07T05:21:05.051Z,73.17
2022-10-07T05:22:37.913Z,72.98
2022-10-07T05:24:10.378Z,73.18
2022-10-07T05:25:45.379Z,73.26
2022-10-07T05:27:19.599Z,73.18
2022-10-07T05:28:51.233Z,73.30
2022-10-07T05:30:28.965Z,73.42
2022-10-07T05:32:04.717Z,73.61
2022-10-07T05:33:37.769Z,73.82
2022-10-07T05:35:10.339Z,73.54
2022-10-07T05:36:42.345Z,74.00
2022-10-07T05:38:14.110Z,73.81
2022-10-07T05:39:46.779Z,73.71
2022-10-07T05:41:24.864Z,74.14
2022-10-07T05:42:56.471Z,73.85
2022-10-07T05:44:29.575Z,73.72
2022-10-07T05:46:03.947Z,73.87
2022-10-07T05:47:37.911Z,73.72
2022-10-07T05:49:12.007Z,73.81
2022-10-07T05:50:47.129Z,74.12
2022-10-07T05:52:21.335Z,74.02
2022-10-07T05:53:54.732Z,74.04
2022-10-07T05:55:27.986Z,73.90
2022-10-07T05:57:01.497Z,73.72
2022-10-07T05:58:35.472Z,73.91
2022-10-07T06:00:08.066Z,73.65
2022-10-07T06:01:45.238Z,73.84
2022-10-07T06:03:22.154Z,74.16
2022-10-07T06:04:54.412Z,74.08
2022-10-07T06:06:26.694Z,74.33
2022-10-07T06:08:00.898Z,73.92
2022-10-07T06:09:51.157Z,73.98
2022-10-07T06:11:41.738Z,73.85
2022-10-07T06:13:14.908Z,74.03
2022-10-07T06:14:47.158Z,73.65
2022-10-07T06:16:19.056Z,73.56
2022-10-07T06:17:52.765Z,74.02
2022-10-07T06:19:25.106Z,73.66
2022-10-07T06:21:01.014Z,73.76
2022-10-07T06:22:34.760Z,74.13
2022-10-07T06:24:06.562Z,73.87
2022-10-07T06:25:39.745Z,73.94
2022-10-07T06:27:11.434Z,73.98
2022-10-07T06:28:45.906Z,74.24
2022-10-07T06:30:17.738Z,73.79
2022-10-07T06:31:50.268Z,74.10
2022-10-07T06:33:21.857Z,73.80
2022-10-07T06:34:53.981Z,74.03
2022-10-07T06:36:26.466Z,74.28
2022-10-07T06:38:00.366Z,73.97
2022-10-07T06:39:32.843Z,73.89
2022-10-07T06:41:05.466Z,73.88
2022-10-07T06:42:38.536Z,74.00
2022-10-07T06:44:53.728Z,73.89
2022-10-07T06:46:31.715Z,73.96
2022-10-07T06:48:03.453Z,74.07
2022-10-07T06:49:35.934Z,73.64
2022-10-07T06:51:07.570Z,73.94
2022-10-07T06:52:43.480Z,73.56
2022-10-07T06:54:16.008Z,73.60
2022-10-07T06:55:48.018Z,73.31
2022-10-07T06:57:44.797Z,73.07
2022-10-07T06:59:12.978Z,73.73
2022-10-07T07:00:59.894Z,73.05
2022-10-07T07:02:32.907Z,72.80
2022-10-07T07:04:05.335Z,72.58
2022-10-07T07:05:41.391Z,72.76
2022-10-07T07:07:18.631Z,72.54
2022-10-07T07:08:50.457Z,72.34
2022-10-07T07:10:24.556Z,72.53
2022-10-07T07:11:57.310Z,71.68
2022-10-07T07:13:42.607Z,71.98
2022-10-07T07:15:17.243Z,71.50
2022-10-07T07:16:50.613Z,71.33
2022-10-07T07:18:23.983Z,71.67
2022-10-07T07:19:56.651Z,71.71
2022-10-07T07:21:30.690Z,71.29
2022-10-07T07:23:05.573Z,71.06
2022-10-07T07:24:37.632Z,70.81
2022-10-07T07:26:09.647Z,71.21
2022-10-07T07:27:41.537Z,70.60
2022-10-07T07:29:16.779Z,70.93
2022-10-07T07:30:54.721Z,70.52
2022-10-07T07:32:29.504Z,70.20
2022-10-07T07:34:04.673Z,70.30
2022-10-07T07:35:37.791Z,70.10
2022-10-07T07:37:10.130Z,70.01
2022-10-07T07:38:51.951Z,69.79
2022-10-07T07:40:24.320Z,69.87
2022-10-07T07:41:56.528Z,69.90
2022-10-07T07:43:29.415Z,69.42
2022-10-07T07:45:01.415Z,69.48
2022-10-07T07:46:34.488Z,68.80
2022-10-07T07:48:08.118Z,68.60
2022-10-07T07:49:41.139Z,68.26
2022-10-07T07:51:17.414Z,68.63
2022-10-07T07:52:51.065Z,67.64
2022-10-07T07:54:30.466Z,67.48
2022-10-07T07:56:11.527Z,67.36
2022-10-07T07:57:59.045Z,67.62
2022-10-07T07:59:31.377Z,67.30
2022-10-07T08:01:06.280Z,67.84
2022-10-07T08:02:41.599Z,67.43
2022-10-07T08:04:19.357Z,66.62
2022-10-07T08:05:52.944Z,66.68
2022-10-07T08:07:37.642Z,65.95
2022-10-07T08:09:10.510Z,66.11
2022-10-07T08:10:51.035Z,65.57
2022-10-07T08:12:24.897Z,66.10
2022-10-07T08:14:02.312Z,65.26
2022-10-07T08:15:39.901Z,65.28
2022-10-07T08:17:12.176Z,64.34
2022-10-07T08:18:48.433Z,64.09
2022-10-07T08:20:26.432Z,64.03
2022-10-07T08:22:01.760Z,63.89
2022-10-07T08:23:38.946Z,64.04
2022-10-07T08:25:18.013Z,63.67
2022-10-07T08:26:54.896Z,64.07
2022-10-07T08:28:30.641Z,63.91
2022-10-07T08:30:10.122Z,63.55
2022-10-07T08:31:47.881Z,63.37
2022-10-07T08:33:25.696Z,63.56
2022-10-07T08:34:59.456Z,63.04
2022-10-07T08:36:36.092Z,62.18
2022-10-07T08:38:10.474Z,62.24
2022-10-07T08:39:49.057Z,62.19
2022-10-07T08:41:36.923Z,62.33
2022-10-07T08:43:09.954Z,62.08
2022-10-07T08:44:47.130Z,61.94
2022-10-07T08:46:24.090Z,62.03
2022-10-07T08:47:57.575Z,61.94
2022-10-07T08:49:34.174Z,61.80
2022-10-07T08:51:16.346Z,61.76
2022-10-07T08:52:51.886Z,61.63
2022-10-07T08:54:26.664Z,61.22
2022-10-07T08:56:10.274Z,61.46
2022-10-07T08:57:49.197Z,61.71
2022-10-07T08:59:24.143Z,61.62
2022-10-07T09:01:02.719Z,60.98
2022-10-07T09:02:40.842Z,60.72
2022-10-07T09:04:24.595Z,60.75
2022-10-07T09:05:59.642Z,60.80
2022-10-07T09:07:33.114Z,60.54
2022-10-07T09:09:12.275Z,60.69
2022-10-07T09:11:16.570Z,60.30
2022-10-07T09:12:52.175Z,60.48
2022-10-07T09:14:28.116Z,59.59
2022-10-07T09:16:06.716Z,59.32
2022-10-07T09:17:43.861Z,59.50
2022-10-07T09:19:22.138Z,58.73
2022-10-07T09:20:56.117Z,58.41
2022-10-07T09:22:34.299Z,58.26
2022-10-07T09:24:16.989Z,58.41
2022-10-07T09:25:54.723Z,58.87
2022-10-07T09:27:30.795Z,58.76
2022-10-07T09:30:17.314Z,58.89
2022-10-07T09:33:13.397Z,58.96
2022-10-07T09:34:54.703Z,58.53
2022-10-07T09:36:30.839Z,58.23
2022-10-07T09:38:12.015Z,58.48
2022-10-07T09:39:57.969Z,58.63
2022-10-07T09:41:35.893Z,58.08
2022-10-07T09:43:32.672Z,57.83
2022-10-07T09:45:27.673Z,58.07
2022-10-07T09:47:16.267Z,58.33
2022-10-07T09:48:56.708Z,58.23
2022-10-07T09:50:35.627Z,58.39
2022-10-07T09:52:16.168Z,58.40
2022-10-07T09:54:03.135Z,58.19
2022-10-07T09:55:41.742Z,58.23
2022-10-07T09:57:28.434Z,57.94
2022-10-07T09:59:14.802Z,57.83
2022-10-07T10:00:48.114Z,56.58
2022-10-07T10:02:28.048Z,56.90
2022-10-07T10:04:02.492Z,56.82
2022-10-07T10:05:39.181Z,57.11
2022-10-07T10:07:17.870Z,57.71
2022-10-07T10:08:56.711Z,57.47
2022-10-07T10:10:31.341Z,56.97
2022-10-07T10:12:15.343Z,56.55
2022-10-07T10:13:48.429Z,55.86
2022-10-07T10:15:26.126Z,55.78
2022-10-07T10:16:57.916Z,55.57
2022-10-07T10:18:32.525Z,55.21
2022-10-07T10:20:22.779Z,54.31
2022-10-07T10:22:03.363Z,54.38
2022-10-07T10:23:36.854Z,53.95
2022-10-07T10:25:28.294Z,53.37
2022-10-07T10:27:03.719Z,53.33
2022-10-07T10:28:44.952Z,53.99
2022-10-07T10:30:20.893Z,54.10
2022-10-07T10:32:00.946Z,53.66
2022-10-07T10:33:33.867Z,54.13
2022-10-07T10:35:09.700Z,53.56
2022-10-07T10:36:45.440Z,52.17
2022-10-07T10:38:28.828Z,51.34
2022-10-07T10:40:07.805Z,51.25
2022-10-07T10:41:43.475Z,51.63
2022-10-07T10:43:20.271Z,52.25
2022-10-07T10:45:04.622Z,51.93
2022-10-07T10:46:43.301Z,51.63
2022-10-07T10:48:24.718Z,52.02
2022-10-07T10:50:03.691Z,50.92
2022-10-07T10:51:47.963Z,50.96
2022-10-07T10:53:32.123Z,51.87
2022-10-07T10:55:14.903Z,51.34
2022-10-07T10:56:50.756Z,50.63
2022-10-07T10:58:27.437Z,50.30
2022-10-07T11:00:05.521Z,50.84
2022-10-07T11:01:41.874Z,51.25
2022-10-07T11:03:44.750Z,50.95
2022-10-07T11:05:18.235Z,50.69
2022-10-07T11:06:53.360Z,50.40
2022-10-07T11:08:27.947Z,50.25
2022-10-07T11:10:02.877Z,49.67
2022-10-07T11:11:35.527Z,49.54
2022-10-07T11:13:19.113Z,49.59
2022-10-07T11:15:05.549Z,49.75
2022-10-07T11:16:49.967Z,49.54
2022-10-07T11:18:28.244Z,48.96
2022-10-07T11:20:04.459Z,48.84
2022-10-07T11:21:40.505Z,48.91
2022-10-07T11:23:16.909Z,48.82
2022-10-07T11:24:57.232Z,48.89
2022-10-07T11:26:34.577Z,49.21
2022-10-07T11:28:09.265Z,49.15
2022-10-07T11:29:45.035Z,48.26
2022-10-07T11:31:21.565Z,47.94
2022-10-07T11:32:58.824Z,48.67
2022-10-07T11:34:35.929Z,48.91
2022-10-07T11:36:13.387Z,47.95
2022-10-07T11:37:50.868Z,48.30
2022-10-07T11:39:24.139Z,48.33
2022-10-07T11:40:58.511Z,48.36
2022-10-07T11:42:33.869Z,47.98
2022-10-07T11:44:10.109Z,47.90
2022-10-07T11:45:50.057Z,48.69
2022-10-07T11:47:25.167Z,47.92
2022-10-07T11:49:02.437Z,47.81
2022-10-07T11:50:37.137Z,47.37
2022-10-07T11:52:10.874Z,47.53
2022-10-07T11:53:44.461Z,47.42
2022-10-07T11:55:21.473Z,47.93
2022-10-07T11:56:54.375Z,47.43
2022-10-07T11:58:27.516Z,47.72
2022-10-07T12:00:00.383Z,48.10
2022-10-07T12:01:49.429Z,47.66
2022-10-07T12:03:40.026Z,48.17
2022-10-07T12:07:47.032Z,47.49
2022-10-07T12:09:34.938Z,47.00
2022-10-07T12:11:25.029Z,47.15
2022-10-07T12:13:00.395Z,47.30
2022-10-07T12:14:49.969Z,46.42
2022-10-07T12:16:43.761Z,46.31
2022-10-07T12:18:28.435Z,46.75
2022-10-07T12:20:22.246Z,46.72
2022-10-07T12:22:12.298Z,46.36
2022-10-07T12:23:44.390Z,45.91
2022-10-07T12:25:32.029Z,46.46
2022-10-07T12:27:07.510Z,46.24
2022-10-07T12:28:48.774Z,45.74
2022-10-07T12:30:35.549Z,44.93
2022-10-07T12:32:24.142Z,44.85
2022-10-07T12:33:56.332Z,44.72
2022-10-07T12:35:42.844Z,44.19
2022-10-07T12:37:41.356Z,44.83
2022-10-07T12:39:34.576Z,44.40
2022-10-07T12:41:17.919Z,44.06
2022-10-07T12:42:54.550Z,43.24
2022-10-07T12:44:31.601Z,43.39
2022-10-07T12:46:05.407Z,43.67
2022-10-07T12:47:38.555Z,43.25
2022-10-07T12:49:14.061Z,42.63
2022-10-07T12:50:47.544Z,42.65
2022-10-07T12:52:22.728Z,42.69
2022-10-07T12:53:55.646Z,42.92
2022-10-07T12:55:30.493Z,43.08
2022-10-07T12:57:02.942Z,43.18
2022-10-07T12:59:13.672Z,42.72
2022-10-07T13:00:51.246Z,41.73
2022-10-07T13:02:43.243Z,40.47
2022-10-07T13:04:39.755Z,40.22
2022-10-07T13:06:34.412Z,40.19
2022-10-07T13:08:30.384Z,40.14
2022-10-07T13:10:17.996Z,40.28
2022-10-07T13:11:59.184Z,40.39
2022-10-07T13:13:33.761Z,39.19
2022-10-07T13:15:14.839Z,39.25
2022-10-07T13:18:41.387Z,38.42
2022-10-07T13:20:20.509Z,38.81
2022-10-07T13:21:56.204Z,38.42
2022-10-07T13:23:30.337Z,38.46
2022-10-07T13:25:12.530Z,38.50
2022-10-07T13:26:46.385Z,38.17
2022-10-07T13:28:19.692Z,38.56
2022-10-07T13:29:52.004Z,37.42
2022-10-07T13:31:25.615Z,37.59
2022-10-07T13:33:13.068Z,37.53
2022-10-07T13:34:48.685Z,36.50
2022-10-07T13:36:22.702Z,36.18
2022-10-07T13:37:54.768Z,36.07
2022-10-07T13:39:27.025Z,36.55
2022-10-07T13:41:04.431Z,34.76
2022-10-07T13:42:43.124Z,34.88
2022-10-07T13:44:15.767Z,35.00
2022-10-07T13:45:48.156Z,34.47
2022-10-07T13:47:25.500Z,34.74
2022-10-07T13:49:02.863Z,33.72
2022-10-07T13:50:38.747Z,34.45
2022-10-07T13:52:19.569Z,34.12
2022-10-07T13:53:55.911Z,33.84
2022-10-07T13:55:30.014Z,33.88
2022-10-07T13:57:08.892Z,34.62
2022-10-07T13:58:43.957Z,34.24
2022-10-07T14:00:16.386Z,34.42
2022-10-07T14:01:50.318Z,34.48
2022-10-07T14:03:22.256Z,34.75
2022-10-07T14:05:02.098Z,33.93
2022-10-07T14:06:37.864Z,33.51
2022-10-07T14:08:16.384Z,33.37
2022-10-07T14:09:49.090Z,34.01
2022-10-07T14:11:22.591Z,34.17
2022-10-07T14:12:57.067Z,33.81
2022-10-07T14:14:33.179Z,34.10
2022-10-07T14:16:05.352Z,34.77
2022-10-07T14:17:41.035Z,34.67
2022-10-07T14:19:20.578Z,34.73
2022-10-07T14:20:55.515Z,33.99
2022-10-07T14:22:30.161Z,34.14
2022-10-07T14:24:07.886Z,34.19
2022-10-07T14:25:50.468Z,33.72
2022-10-07T14:27:54.144Z,33.95
2022-10-07T14:29:38.160Z,34.43
2022-10-07T14:31:29.929Z,34.96
2022-10-07T14:33:24.378Z,35.46
2022-10-07T14:35:14.619Z,35.72
2022-10-07T14:37:07.420Z,36.12
2022-10-07T14:38:39.636Z,36.20
2022-10-07T14:40:18.716Z,36.17
2022-10-07T14:41:50.853Z,36.08
2022-10-07T14:43:22.307Z,36.38
2022-10-07T14:44:55.367Z,36.58
2022-10-07T14:46:27.759Z,36.80
2022-10-07T14:47:59.246Z,36.93
2022-10-07T14:49:31.356Z,37.28
2022-10-07T14:51:02.882Z,37.64
2022-10-07T14:52:43.564Z,37.71
2022-10-07T14:54:16.860Z,38.16
2022-10-07T14:55:48.319Z,38.14
2022-10-07T14:57:19.871Z,38.56
2022-10-07T14:58:51.513Z,38.74
2022-10-07T15:00:24.126Z,38.77
2022-10-07T15:01:55.751Z,38.92
2022-10-07T15:03:29.301Z,39.17
2022-10-07T15:05:00.769Z,39.54
2022-10-07T15:06:33.601Z,39.66
2022-10-07T15:08:06.438Z,39.65
2022-10-07T15:09:37.896Z,39.60
2022-10-07T15:11:11.012Z,39.79
2022-10-07T15:12:44.179Z,39.95
2022-10-07T15:14:16.064Z,40.11
2022-10-07T15:15:48.118Z,40.07
2022-10-07T15:17:19.570Z,40.18
2022-10-07T15:18:53.016Z,40.00
2022-10-07T15:20:24.796Z,39.56
2022-10-07T15:21:56.261Z,40.00
2022-10-07T15:23:30.118Z,39.94
2022-10-07T15:25:03.317Z,39.73
2022-10-07T15:26:34.816Z,40.09
2022-10-07T15:28:06.311Z,40.44
2022-10-07T15:29:37.828Z,40.27
2022-10-07T15:31:09.741Z,40.42
2022-10-07T15:32:41.460Z,40.54
2022-10-07T15:34:13.978Z,40.80
2022-10-07T15:35:45.420Z,40.66
2022-10-07T15:37:17.573Z,40.59
2022-10-07T15:38:50.421Z,40.90
2022-10-07T15:40:21.949Z,40.90
2022-10-07T15:41:53.542Z,40.85
2022-10-07T15:43:25.490Z,40.68
2022-10-07T15:44:57.014Z,40.50
2022-10-07T15:46:28.827Z,40.56
2022-10-07T15:48:00.591Z,41.00
2022-10-07T15:49:32.269Z,40.92
2022-10-07T15:51:04.787Z,41.08
2022-10-07T15:52:36.255Z,41.13
2022-10-07T15:54:10.276Z,41.25
2022-10-07T15:55:48.492Z,41.38
2022-10-07T15:57:22.303Z,41.44
2022-10-07T15:58:53.859Z,41.61
2022-10-07T16:00:25.414Z,41.89
2022-10-07T16:01:57.244Z,41.64
2022-10-07T16:03:32.380Z,41.67
2022-10-07T16:05:04.361Z,41.62
2022-10-07T16:06:36.763Z,42.14
2022-10-07T16:08:08.668Z,41.88
2022-10-07T16:09:41.918Z,42.19
2022-10-07T16:11:13.755Z,42.32
2022-10-07T16:12:45.472Z,42.48
2022-10-07T16:14:17.595Z,42.50
2022-10-07T16:15:58.880Z,42.93
2022-10-07T16:17:30.443Z,42.99
2022-10-07T16:19:01.928Z,43.13
2022-10-07T16:20:37.347Z,43.29
2022-10-07T16:22:09.554Z,43.38
2022-10-07T16:23:42.362Z,43.37
2022-10-07T16:25:15.810Z,43.51
2022-10-07T16:26:48.013Z,43.78
2022-10-07T16:28:38.145Z,43.87
2022-10-07T16:30:29.280Z,43.74
2022-10-07T16:32:00.771Z,44.17
2022-10-07T16:33:32.213Z,44.17
2022-10-07T16:35:04.150Z,44.33
2022-10-07T16:36:36.189Z,44.51
2022-10-07T16:38:07.661Z,44.88
2022-10-07T16:39:39.229Z,45.15
2022-10-07T16:41:12.165Z,45.28
2022-10-07T16:42:43.616Z,45.21
2022-10-07T16:44:15.472Z,45.14
2022-10-07T16:45:46.956Z,45.30
2022-10-07T16:47:18.409Z,45.34
2022-10-07T16:48:50.247Z,45.41
2022-10-07T16:50:21.751Z,45.35
2022-10-07T16:51:54.268Z,45.68
2022-10-07T16:53:26.921Z,45.83
2022-10-07T16:54:59.787Z,46.22
2022-10-07T16:56:33.921Z,46.28
2022-10-07T16:58:05.384Z,46.29
2022-10-07T16:59:36.958Z,46.39
2022-10-07T17:01:09.784Z,46.44
2022-10-07T17:02:41.305Z,46.97
2022-10-07T17:04:12.819Z,46.70
2022-10-07T17:05:44.328Z,47.01
2022-10-07T17:07:15.953Z,47.22
2022-10-07T17:08:48.444Z,47.37
2022-10-07T17:10:21.148Z,47.56
2022-10-07T17:11:53.987Z,47.58
2022-10-07T17:13:25.407Z,47.65
2022-10-07T17:14:57.374Z,47.96
2022-10-07T17:16:29.874Z,47.89
2022-10-07T17:18:01.411Z,48.29
2022-10-07T17:19:33.631Z,48.49
2022-10-07T17:21:05.212Z,48.67
2022-10-07T17:22:36.689Z,48.83
2022-10-07T17:24:08.562Z,48.75
2022-10-07T17:25:41.714Z,49.00
2022-10-07T17:27:14.576Z,49.07
2022-10-07T17:28:49.839Z,49.24
2022-10-07T17:30:21.376Z,49.40
2022-10-07T17:31:53.029Z,49.56
2022-10-07T17:33:24.930Z,49.53
2022-10-07T17:34:56.500Z,49.88
2022-10-07T17:36:28.024Z,49.99
2022-10-07T17:37:59.733Z,50.21
2022-10-07T17:39:31.219Z,50.64
2022-10-07T17:41:09.629Z,50.72
2022-10-07T17:42:42.531Z,51.10
2022-10-07T17:44:14.100Z,51.12
2022-10-07T17:45:45.578Z,51.76
2022-10-07T17:47:17.076Z,52.18
2022-10-07T17:48:50.269Z,52.46
2022-10-07T17:50:22.047Z,52.82
2022-10-07T17:51:55.101Z,52.45
2022-10-07T17:53:26.837Z,52.63
2022-10-07T17:54:58.369Z,52.68
2022-10-07T17:56:30.180Z,52.59
2022-10-07T17:58:02.999Z,52.60
2022-10-07T17:59:34.762Z,52.62
2022-10-07T18:01:07.756Z,52.64
2022-10-07T18:02:39.921Z,52.74
2022-10-07T18:04:13.304Z,52.90
2022-10-07T18:05:50.012Z,53.34
2022-10-07T18:07:21.510Z,53.79
2022-10-07T18:08:52.971Z,54.02
2022-10-07T18:10:24.446Z,54.45
2022-10-07T18:12:14.541Z,54.43
2022-10-07T18:14:13.272Z,54.81
2022-10-07T18:15:55.776Z,55.08
2022-10-07T18:17:27.349Z,55.31
2022-10-07T18:18:59.899Z,55.46
2022-10-07T18:20:31.438Z,56.12
2022-10-07T18:22:02.980Z,56.12
2022-10-07T18:23:35.078Z,56.30
2022-10-07T18:25:06.725Z,56.59
2022-10-07T18:26:38.244Z,55.86
2022-10-07T18:28:09.751Z,56.20
2022-10-07T18:29:42.626Z,56.06
2022-10-07T18:31:15.009Z,56.15
2022-10-07T18:32:46.612Z,56.09
2022-10-07T18:34:18.095Z,56.05
2022-10-07T18:35:49.564Z,55.73
2022-10-07T18:37:21.018Z,55.80
2022-10-07T18:38:52.493Z,55.63
2022-10-07T18:40:23.974Z,55.96
2022-10-07T18:41:55.937Z,56.22
2022-10-07T18:43:27.481Z,56.22
2022-10-07T18:45:00.312Z,56.03
2022-10-07T18:46:32.194Z,56.00
2022-10-07T18:48:03.852Z,56.25
2022-10-07T18:49:35.400Z,56.29
2022-10-07T18:51:07.212Z,56.21
2022-10-07T18:52:38.693Z,56.15
2022-10-07T18:54:10.470Z,56.13
2022-10-07T18:55:41.946Z,56.50
2022-10-07T18:57:13.400Z,56.55
2022-10-07T18:58:46.110Z,56.48
2022-10-07T19:00:19.118Z,56.08
2022-10-07T19:01:51.323Z,56.16
2022-10-07T19:03:22.979Z,56.16
2022-10-07T19:04:54.446Z,56.63
2022-10-07T19:06:26.193Z,56.33
2022-10-07T19:07:57.621Z,56.77
2022-10-07T19:09:29.189Z,56.33
2022-10-07T19:11:04.283Z,57.05
2022-10-07T19:12:54.162Z,57.10
2022-10-07T19:14:26.052Z,56.69
2022-10-07T19:16:01.549Z,56.58
2022-10-07T19:17:33.030Z,56.90
2022-10-07T19:19:05.713Z,57.30
2022-10-07T19:20:37.311Z,56.79
2022-10-07T19:22:09.362Z,56.94
2022-10-07T19:23:41.389Z,57.17
2022-10-07T19:25:31.449Z,56.90
2022-10-07T19:27:03.024Z,57.43
2022-10-07T19:28:35.759Z,57.33
2022-10-07T19:30:08.159Z,57.30
2022-10-07T19:31:41.890Z,58.06
2022-10-07T19:33:13.401Z,58.09
2022-10-07T19:34:44.962Z,57.85
2022-10-07T19:36:17.656Z,57.74
2022-10-07T19:37:49.399Z,57.87
2022-10-07T19:39:21.857Z,57.77
2022-10-07T19:40:55.047Z,57.60
2022-10-07T19:42:28.359Z,57.73
2022-10-07T19:44:00.121Z,57.63
2022-10-07T19:45:31.866Z,58.10
2022-10-07T19:47:04.802Z,58.37
2022-10-07T19:48:37.294Z,58.01
2022-10-07T19:50:08.861Z,58.09
2022-10-07T19:51:41.827Z,58.41
2022-10-07T19:53:15.470Z,58.63
2022-10-07T19:54:49.682Z,58.07
2022-10-07T19:56:22.389Z,58.20
2022-10-07T19:57:54.507Z,58.50
2022-10-07T19:59:26.205Z,58.39
2022-10-07T20:01:04.691Z,58.22
2022-10-07T20:02:37.652Z,58.46
2022-10-07T20:04:09.939Z,58.78
2022-10-07T20:05:42.060Z,58.54
2022-10-07T20:07:13.566Z,58.87
2022-10-07T20:08:46.503Z,58.98
2022-10-07T20:10:18.655Z,58.70
2022-10-07T20:11:50.132Z,59.05
2022-10-07T20:13:21.735Z,58.82
2022-10-07T20:14:53.255Z,58.93
2022-10-07T20:16:25.765Z,59.00
2022-10-07T20:17:58.652Z,58.89
2022-10-07T20:19:30.193Z,58.65
2022-10-07T20:21:02.246Z,58.92
2022-10-07T20:22:34.373Z,59.08
2022-10-07T20:24:07.025Z,59.18
2022-10-07T20:25:39.182Z,58.81
2022-10-07T20:27:10.698Z,59.06
2022-10-07T20:28:42.236Z,59.02
2022-10-07T20:30:17.870Z,59.29
2022-10-07T20:31:49.743Z,59.36
2022-10-07T20:33:22.605Z,59.12
2022-10-07T20:34:54.315Z,59.11
2022-10-07T20:36:26.857Z,59.25
2022-10-07T20:37:58.304Z,59.21
2022-10-07T20:39:48.253Z,59.45
2022-10-07T20:41:38.296Z,59.48
2022-10-07T20:43:09.819Z,59.69